createdAt,value
2022-12-23T00:00:30.036Z,8.37
2022-12-23T00:02:57.286Z,10.56
2022-12-23T00:05:24.545Z,10.86
2022-12-23T00:07:51.257Z,11.01
2022-12-23T00:10:18.264Z,8.65
2022-12-23T00:13:03.500Z,7.47
2022-12-23T00:15:30.270Z,8.56
2022-12-23T00:17:57.350Z,8.74
2022-12-23T00:20:24.456Z,10.19
2022-12-23T00:23:06.259Z,9.72
2022-12-23T00:25:41.421Z,8.78
2022-12-23T00:28:12.445Z,7.43
2022-12-23T00:30:51.178Z,8.40
2022-12-23T00:33:20.603Z,8.03
2022-12-23T00:35:48.080Z,8.00
2022-12-23T00:38:15.206Z,8.63
2022-12-23T00:41:00.703Z,9.38
2022-12-23T00:43:27.730Z,9.05
2022-12-23T00:45:55.145Z,8.18
2022-12-23T00:48:40.704Z,10.70
2022-12-23T00:51:07.539Z,10.25
2022-12-23T00:53:34.260Z,9.33
2022-12-23T00:56:00.991Z,9.60
2022-12-23T00:58:28.126Z,9.73
2022-12-23T01:01:14.593Z,8.20
2022-12-23T01:03:59.954Z,7.39
2022-12-23T01:06:26.630Z,7.53
2022-12-23T01:08:53.811Z,7.45
2022-12-23T01:11:21.057Z,8.72
2022-12-23T01:13:48.201Z,7.74
2022-12-23T01:16:17.630Z,8.26
2022-12-23T01:18:44.930Z,7.81
2022-12-23T01:21:14.214Z,7.60
2022-12-23T01:23:41.143Z,7.78
2022-12-23T01:26:09.267Z,9.32
2022-12-23T01:28:36.431Z,7.89
2022-12-23T01:31:05.611Z,8.96
2022-12-23T01:33:33.664Z,8.77
2022-12-23T01:36:06.542Z,7.78
2022-12-23T01:38:34.590Z,7.79
2022-12-23T01:41:02.426Z,8.04
2022-12-23T01:43:50.432Z,6.36
2022-12-23T01:46:17.523Z,6.96
2022-12-23T01:48:49.371Z,8.26
2022-12-23T01:51:29.162Z,10.23
2022-12-23T01:54:01.248Z,7.75
2022-12-23T01:56:34.750Z,9.18
2022-12-23T01:59:07.573Z,10.25
2022-12-23T02:01:53.226Z,9.79
2022-12-23T02:04:24.453Z,10.33
2022-12-23T02:07:10.693Z,6.87
2022-12-23T02:09:40.484Z,7.38
2022-12-23T02:12:55.758Z,8.54
2022-12-23T02:16:01.037Z,8.90
2022-12-23T02:18:47.632Z,7.37
2022-12-23T02:21:20.649Z,8.19
2022-12-23T02:24:33.976Z,9.08
2022-12-23T02:27:37.409Z,8.34
2022-12-23T02:30:25.088Z,10.54
2022-12-23T02:33:14.723Z,8.08
2022-12-23T02:35:48.453Z,10.19
2022-12-23T02:38:26.645Z,9.62
2022-12-23T02:41:17.610Z,8.77
2022-12-23T02:44:11.351Z,9.11
2022-12-23T02:46:47.512Z,8.68
2022-12-23T02:49:25.973Z,11.32
2022-12-23T02:51:56.111Z,9.57
2022-12-23T02:54:32.449Z,10.16
2022-12-23T02:57:03.318Z,7.44
2022-12-23T02:59:36.509Z,8.85
2022-12-23T03:02:03.431Z,10.60
2022-12-23T03:04:30.321Z,8.93
2022-12-23T03:07:04.337Z,7.64
2022-12-23T03:09:43.067Z,8.19
2022-12-23T03:12:43.967Z,9.16
2022-12-23T03:15:33.470Z,8.72
2022-12-23T03:18:12.492Z,9.02
2022-12-23T03:21:10.347Z,10.13
2022-12-23T03:23:53.625Z,8.73
2022-12-23T03:26:29.000Z,9.58
2022-12-23T03:28:59.228Z,8.50
2022-12-23T03:31:30.174Z,9.75
2022-12-23T03:34:15.155Z,9.73
2022-12-23T03:36:55.720Z,7.92
2022-12-23T03:39:26.968Z,9.27
2022-12-23T03:42:00.571Z,9.28
2022-12-23T03:44:35.479Z,9.87
2022-12-23T03:47:27.471Z,8.64
2022-12-23T03:50:02.746Z,10.44
2022-12-23T03:52:36.710Z,9.21
2022-12-23T03:55:07.222Z,11.57
2022-12-23T03:58:02.132Z,12.47
2022-12-23T04:00:33.998Z,9.40
2022-12-23T04:03:11.557Z,10.34
2022-12-23T04:05:41.637Z,9.72
2022-12-23T04:08:26.708Z,9.26
2022-12-23T04:10:53.592Z,8.15
2022-12-23T04:13:20.485Z,10.77
2022-12-23T04:15:47.729Z,11.19
2022-12-23T04:18:16.316Z,10.75
2022-12-23T04:20:43.084Z,10.87
2022-12-23T04:23:09.872Z,11.24
2022-12-23T04:25:36.802Z,9.71
2022-12-23T04:28:03.694Z,10.28
2022-12-23T04:30:34.331Z,11.32
2022-12-23T04:33:02.037Z,10.57
2022-12-23T04:35:30.228Z,9.66
2022-12-23T04:37:57.403Z,10.04
2022-12-23T04:40:24.133Z,10.69
2022-12-23T04:42:50.854Z,10.80
2022-12-23T04:45:17.584Z,9.92
2022-12-23T04:47:44.562Z,10.30
2022-12-23T04:50:15.555Z,9.94
2022-12-23T04:52:43.574Z,10.37
2022-12-23T04:55:11.238Z,10.89
2022-12-23T04:57:38.013Z,9.89
2022-12-23T05:00:06.104Z,11.60
2022-12-23T05:02:33.024Z,11.26
2022-12-23T05:04:59.849Z,10.56
2022-12-23T05:07:26.558Z,9.96
2022-12-23T05:09:53.302Z,10.46
2022-12-23T05:12:20.074Z,10.71
2022-12-23T05:14:47.283Z,11.14
2022-12-23T05:17:13.974Z,10.07
2022-12-23T05:19:41.458Z,10.60
2022-12-23T05:22:08.277Z,10.51
2022-12-23T05:24:34.990Z,9.95
2022-12-23T05:27:01.704Z,10.76
2022-12-23T05:29:28.529Z,11.57
2022-12-23T05:31:55.590Z,12.17
2022-12-23T05:34:22.697Z,11.56
2022-12-23T05:36:49.696Z,12.42
2022-12-23T05:39:16.506Z,11.06
2022-12-23T05:41:43.255Z,10.54
2022-12-23T05:44:10.528Z,11.74
2022-12-23T05:46:37.361Z,11.79
2022-12-23T05:49:04.159Z,9.65
2022-12-23T05:51:31.315Z,12.18
2022-12-23T05:53:58.025Z,11.77
2022-12-23T05:56:24.894Z,11.88
2022-12-23T05:58:51.575Z,11.57
2022-12-23T06:01:18.668Z,13.35
2022-12-23T06:03:45.526Z,12.42
2022-12-23T06:06:12.889Z,12.46
2022-12-23T06:08:39.660Z,10.57
2022-12-23T06:11:07.011Z,12.12
2022-12-23T06:13:33.814Z,12.44
2022-12-23T06:16:00.536Z,12.25
2022-12-23T06:18:27.420Z,12.27
2022-12-23T06:20:54.177Z,12.36
2022-12-23T06:23:21.243Z,10.91
2022-12-23T06:25:47.975Z,12.26
2022-12-23T06:28:14.988Z,14.20
2022-12-23T06:30:42.133Z,13.27
2022-12-23T06:33:10.087Z,12.66
2022-12-23T06:35:36.830Z,13.81
2022-12-23T06:38:07.504Z,13.05
2022-12-23T06:40:37.366Z,12.90
2022-12-23T06:43:04.123Z,11.98
2022-12-23T06:45:31.203Z,12.14
2022-12-23T06:47:58.328Z,11.71
2022-12-23T06:50:25.120Z,11.48
2022-12-23T06:52:51.984Z,11.69
2022-12-23T06:55:18.697Z,11.81
2022-12-23T06:57:45.915Z,12.79
2022-12-23T07:00:13.559Z,11.75
2022-12-23T07:02:40.371Z,11.89
2022-12-23T07:05:07.891Z,12.28
2022-12-23T07:07:34.664Z,13.58
2022-12-23T07:10:02.106Z,9.65
2022-12-23T07:12:28.879Z,13.34
2022-12-23T07:14:55.629Z,13.30
2022-12-23T07:17:23.041Z,12.01
2022-12-23T07:19:49.796Z,13.12
2022-12-23T07:22:17.191Z,12.53
2022-12-23T07:24:43.960Z,11.98
2022-12-23T07:27:10.705Z,11.66
2022-12-23T07:29:37.615Z,12.59
2022-12-23T07:32:04.721Z,13.15
2022-12-23T07:34:32.100Z,11.99
2022-12-23T07:36:59.106Z,12.41
2022-12-23T07:39:25.842Z,12.45
2022-12-23T07:42:09.105Z,11.35
2022-12-23T07:44:39.291Z,12.88
2022-12-23T07:47:06.134Z,13.04
2022-12-23T07:49:32.821Z,10.87
2022-12-23T07:51:59.586Z,12.77
2022-12-23T07:54:26.625Z,11.81
2022-12-23T07:56:53.460Z,12.50
2022-12-23T07:59:20.215Z,12.67
2022-12-23T08:01:47.829Z,13.78
2022-12-23T08:04:14.630Z,13.30
2022-12-23T08:06:41.816Z,12.24
2022-12-23T08:09:09.570Z,10.33
2022-12-23T08:11:36.505Z,12.65
2022-12-23T08:14:03.213Z,14.23
2022-12-23T08:16:30.186Z,12.53
2022-12-23T08:18:57.005Z,12.26
2022-12-23T08:21:23.735Z,13.05
2022-12-23T08:23:51.598Z,14.76
2022-12-23T08:26:21.788Z,12.90
2022-12-23T08:28:50.079Z,15.56
2022-12-23T08:31:18.953Z,12.36
2022-12-23T08:33:49.364Z,11.96
2022-12-23T08:36:22.802Z,13.23
2022-12-23T08:38:52.164Z,13.34
2022-12-23T08:41:25.744Z,14.19
2022-12-23T08:43:53.581Z,12.18
2022-12-23T08:46:21.168Z,15.20
2022-12-23T08:48:49.736Z,13.09
2022-12-23T08:51:18.570Z,13.74
2022-12-23T08:53:46.715Z,12.22
2022-12-23T08:56:19.861Z,14.08
2022-12-23T08:58:48.407Z,14.57
2022-12-23T09:01:18.376Z,14.40
2022-12-23T09:03:46.573Z,14.51
2022-12-23T09:06:20.684Z,16.84
2022-12-23T09:08:50.306Z,12.78
2022-12-23T09:11:20.560Z,16.70
2022-12-23T09:13:48.931Z,15.95
2022-12-23T09:16:17.852Z,15.35
2022-12-23T09:18:45.513Z,15.57
2022-12-23T09:21:16.028Z,13.99
2022-12-23T09:23:43.176Z,14.53
2022-12-23T09:26:16.908Z,14.23
2022-12-23T09:28:44.087Z,11.38
2022-12-23T09:31:12.871Z,14.13
2022-12-23T09:33:39.812Z,10.71
2022-12-23T09:36:07.470Z,14.52
2022-12-23T09:38:34.527Z,13.08
2022-12-23T09:41:04.073Z,14.28
2022-12-23T09:44:09.235Z,13.99
2022-12-23T09:46:44.215Z,13.74
2022-12-23T09:49:18.713Z,12.79
2022-12-23T09:51:48.038Z,14.80
2022-12-23T09:54:22.726Z,14.26
2022-12-23T09:56:52.486Z,12.68
2022-12-23T09:59:48.187Z,14.88
2022-12-23T10:02:30.923Z,11.68
2022-12-23T10:05:24.424Z,12.84
2022-12-23T10:08:09.991Z,13.04
2022-12-23T10:10:43.386Z,14.87
2022-12-23T10:13:44.518Z,12.81
2022-12-23T10:16:21.450Z,12.14
2022-12-23T10:19:23.842Z,14.11
2022-12-23T10:21:55.222Z,12.83
2022-12-23T10:24:38.957Z,14.42
2022-12-23T10:27:31.521Z,13.52
2022-12-23T10:30:26.369Z,14.33
2022-12-23T10:33:12.043Z,14.54
2022-12-23T10:35:43.336Z,14.78
2022-12-23T10:38:27.567Z,13.87
2022-12-23T10:41:10.608Z,16.28
2022-12-23T10:43:55.548Z,15.31
2022-12-23T10:46:50.631Z,14.36
2022-12-23T10:49:56.009Z,13.35
2022-12-23T10:52:27.593Z,13.09
2022-12-23T10:54:54.616Z,15.34
2022-12-23T10:57:21.455Z,13.49
2022-12-23T10:59:49.363Z,13.09
2022-12-23T11:02:55.326Z,12.83
2022-12-23T11:05:27.763Z,14.00
2022-12-23T11:07:55.658Z,14.49
2022-12-23T11:10:28.834Z,13.87
2022-12-23T11:12:55.529Z,13.98
2022-12-23T11:15:34.970Z,15.01
2022-12-23T11:18:19.300Z,12.74
2022-12-23T11:21:02.836Z,13.15
2022-12-23T11:23:36.752Z,14.24
2022-12-23T11:26:07.775Z,15.96
2022-12-23T11:28:37.594Z,15.65
2022-12-23T11:31:09.741Z,16.81
2022-12-23T11:33:40.429Z,16.71
2022-12-23T11:36:19.267Z,14.09
2022-12-23T11:39:10.415Z,15.58
2022-12-23T11:41:49.258Z,15.48
2022-12-23T11:44:38.131Z,15.58
2022-12-23T11:47:23.186Z,15.22
2022-12-23T11:49:55.261Z,15.47
2022-12-23T11:52:24.230Z,15.58
2022-12-23T11:54:54.986Z,13.49
2022-12-23T11:57:30.731Z,16.25
2022-12-23T12:00:05.559Z,14.62
2022-12-23T12:02:40.742Z,15.06
2022-12-23T12:05:23.028Z,14.07
2022-12-23T12:07:51.667Z,13.94
2022-12-23T12:10:27.186Z,14.73
2022-12-23T12:12:56.943Z,15.19
2022-12-23T12:15:46.847Z,12.99
2022-12-23T12:18:17.291Z,13.58
2022-12-23T12:20:53.218Z,14.25
2022-12-23T12:23:30.085Z,16.10
2022-12-23T12:26:02.940Z,13.79
2022-12-23T12:28:42.379Z,12.31
2022-12-23T12:31:42.780Z,13.22
2022-12-23T12:34:27.746Z,13.49
2022-12-23T12:37:09.310Z,12.71
2022-12-23T12:39:45.185Z,12.96
2022-12-23T12:42:20.893Z,11.81
2022-12-23T12:45:45.183Z,12.44
2022-12-23T12:48:25.904Z,11.75
2022-12-23T12:51:11.592Z,14.45
2022-12-23T12:53:44.757Z,13.90
2022-12-23T12:56:22.727Z,13.89
2022-12-23T12:58:49.882Z,14.06
2022-12-23T13:01:48.657Z,15.31
2022-12-23T13:04:25.536Z,13.59
2022-12-23T13:07:29.456Z,14.65
2022-12-23T13:10:03.560Z,14.49
2022-12-23T13:12:36.328Z,11.72
2022-12-23T13:15:29.696Z,13.36
2022-12-23T13:18:05.831Z,14.96
2022-12-23T13:20:41.134Z,13.31
2022-12-23T13:23:45.018Z,13.09
2022-12-23T13:26:26.724Z,15.31
2022-12-23T13:28:56.481Z,15.62
2022-12-23T13:31:54.214Z,14.32
2022-12-23T13:34:45.614Z,14.28
2022-12-23T13:37:43.579Z,12.97
2022-12-23T13:40:29.457Z,11.60
2022-12-23T13:43:09.640Z,11.87
2022-12-23T13:45:39.995Z,14.24
2022-12-23T13:48:36.956Z,15.58
2022-12-23T13:51:06.751Z,13.68
2022-12-23T13:54:22.109Z,10.79
2022-12-23T13:57:01.802Z,14.19
2022-12-23T13:59:42.592Z,14.96
2022-12-23T14:02:36.976Z,15.03
2022-12-23T14:05:34.021Z,14.62
2022-12-23T14:08:08.181Z,16.07
2022-12-23T14:10:35.932Z,14.77
2022-12-23T14:13:08.797Z,15.81
2022-12-23T14:15:53.202Z,12.17
2022-12-23T14:18:43.067Z,12.09
2022-12-23T14:21:20.660Z,15.20
2022-12-23T14:24:06.108Z,13.70
2022-12-23T14:27:09.680Z,16.08
2022-12-23T14:30:22.045Z,15.21
2022-12-23T14:32:52.436Z,14.24
2022-12-23T14:35:21.961Z,14.72
2022-12-23T14:38:17.253Z,13.51
2022-12-23T14:40:48.599Z,16.36
2022-12-23T14:43:47.505Z,14.61
2022-12-23T14:46:37.295Z,15.40
2022-12-23T14:49:36.828Z,15.60
2022-12-23T14:51:51.286Z,16.16
2022-12-23T14:54:36.977Z,13.47
2022-12-23T14:57:18.404Z,13.82
2022-12-23T14:59:51.460Z,14.17
2022-12-23T15:02:18.682Z,14.89
2022-12-23T15:04:53.880Z,14.09
2022-12-23T15:07:42.096Z,13.43
2022-12-23T15:10:26.747Z,13.32
2022-12-23T15:12:57.467Z,10.91
2022-12-23T15:15:27.424Z,12.90
2022-12-23T15:18:12.213Z,12.24
2022-12-23T15:20:39.601Z,12.36
2022-12-23T15:23:17.751Z,10.72
2022-12-23T15:25:47.728Z,11.26
2022-12-23T15:28:21.841Z,11.97
2022-12-23T15:30:55.371Z,10.85
2022-12-23T15:34:01.698Z,13.15
2022-12-23T15:36:15.158Z,13.23
2022-12-23T15:38:42.601Z,12.45
2022-12-23T15:41:19.892Z,10.85
2022-12-23T15:43:46.809Z,12.46
2022-12-23T15:46:28.646Z,12.91
2022-12-23T15:48:57.649Z,12.28
2022-12-23T15:52:05.638Z,9.74
2022-12-23T15:54:35.179Z,11.91
2022-12-23T15:57:04.343Z,13.02
2022-12-23T15:59:38.375Z,11.34
2022-12-23T16:05:08.956Z,13.51
2022-12-23T16:07:41.721Z,10.54
2022-12-23T16:10:19.310Z,11.44
2022-12-23T16:12:50.236Z,14.19
2022-12-23T16:15:28.418Z,12.41
2022-12-23T16:18:33.462Z,11.34
2022-12-23T16:21:06.372Z,11.62
2022-12-23T16:23:37.074Z,12.79
2022-12-23T16:26:05.151Z,14.25
2022-12-23T16:28:52.709Z,12.55
2022-12-23T16:31:21.309Z,13.66
2022-12-23T16:33:54.508Z,15.05
2022-12-23T16:36:28.221Z,12.48
2022-12-23T16:39:14.991Z,13.01
2022-12-23T16:41:41.969Z,11.82
2022-12-23T16:44:09.296Z,12.66
2022-12-23T16:46:39.409Z,13.50
2022-12-23T16:49:11.067Z,12.98
2022-12-23T16:51:39.691Z,11.97
2022-12-23T16:54:14.080Z,10.03
2022-12-23T16:56:41.041Z,13.05
2022-12-23T16:59:08.193Z,12.18
2022-12-23T17:01:42.326Z,12.95
2022-12-23T17:04:09.400Z,11.47
2022-12-23T17:06:37.394Z,10.71
2022-12-23T17:09:07.958Z,11.03
2022-12-23T17:11:45.922Z,13.65
2022-12-23T17:14:24.031Z,11.05
2022-12-23T17:16:51.796Z,10.86
2022-12-23T17:19:27.287Z,13.10
2022-12-23T17:22:01.213Z,11.91
2022-12-23T17:24:29.093Z,13.57
2022-12-23T17:26:59.941Z,13.23
2022-12-23T17:29:27.577Z,10.30
2022-12-23T17:31:54.772Z,12.17
2022-12-23T17:34:24.296Z,11.74
2022-12-23T17:36:51.581Z,13.38
2022-12-23T17:39:22.209Z,12.05
2022-12-23T17:41:51.133Z,13.01
2022-12-23T17:44:19.912Z,12.64
2022-12-23T17:46:47.366Z,11.98
2022-12-23T17:49:14.875Z,11.77
2022-12-23T17:51:42.814Z,12.75
2022-12-23T17:54:22.145Z,12.77
2022-12-23T17:56:51.177Z,11.74
2022-12-23T17:59:18.074Z,12.16
2022-12-23T18:01:45.196Z,11.75
2022-12-23T18:04:12.093Z,11.34
2022-12-23T18:06:39.167Z,12.96
2022-12-23T18:09:07.102Z,12.32
2022-12-23T18:11:41.971Z,12.83
2022-12-23T18:14:24.600Z,12.58
2022-12-23T18:16:51.396Z,13.38
2022-12-23T18:19:21.282Z,12.39
2022-12-23T18:21:48.164Z,12.11
2022-12-23T18:24:15.217Z,12.82
2022-12-23T18:26:42.032Z,11.80
2022-12-23T18:29:08.848Z,12.59
2022-12-23T18:31:46.815Z,11.09
2022-12-23T18:34:17.878Z,11.44
2022-12-23T18:36:45.627Z,11.80
2022-12-23T18:39:12.573Z,12.93
2022-12-23T18:41:40.709Z,12.65
2022-12-23T18:44:17.385Z,11.68
2022-12-23T18:46:44.538Z,11.58
2022-12-23T18:49:11.327Z,11.64
2022-12-23T18:51:38.271Z,13.16
2022-12-23T18:54:05.453Z,12.39
2022-12-23T18:56:32.199Z,12.95
2022-12-23T18:58:58.903Z,12.89
2022-12-23T19:01:25.716Z,11.88
2022-12-23T19:03:53.008Z,13.05
2022-12-23T19:06:20.289Z,12.81
2022-12-23T19:08:47.032Z,13.11
2022-12-23T19:11:16.973Z,12.75
2022-12-23T19:13:44.747Z,12.30
2022-12-23T19:16:20.457Z,12.21
2022-12-23T19:18:49.290Z,12.78
2022-12-23T19:21:17.585Z,12.92
2022-12-23T19:23:45.041Z,13.08
2022-12-23T19:26:14.051Z,11.17
2022-12-23T19:28:41.747Z,11.07
2022-12-23T19:31:13.635Z,12.61
2022-12-23T19:33:42.448Z,10.41
2022-12-23T19:36:10.856Z,12.14
2022-12-23T19:38:38.472Z,11.70
2022-12-23T19:41:07.268Z,12.61
2022-12-23T19:43:35.642Z,13.16
2022-12-23T19:46:07.305Z,12.70
2022-12-23T19:48:34.522Z,12.53
2022-12-23T19:51:05.801Z,11.82
2022-12-23T19:53:33.272Z,11.80
2022-12-23T19:56:23.013Z,12.30
2022-12-23T19:58:49.980Z,12.65
2022-12-23T20:01:18.443Z,11.84
2022-12-23T20:03:47.133Z,12.69
2022-12-23T20:06:23.301Z,12.95
2022-12-23T20:08:53.708Z,13.39
2022-12-23T20:11:26.192Z,12.57
2022-12-23T20:13:53.864Z,12.73
2022-12-23T20:16:22.365Z,13.58
2022-12-23T20:18:49.812Z,12.42
2022-12-23T20:21:17.251Z,10.91
2022-12-23T20:23:44.276Z,12.78
2022-12-23T20:26:16.442Z,13.52
2022-12-23T20:28:43.796Z,12.67
2022-12-23T20:31:22.644Z,12.49
2022-12-23T20:33:51.281Z,12.36
2022-12-23T20:36:22.507Z,13.11
2022-12-23T20:38:51.662Z,14.12
2022-12-23T20:41:23.297Z,12.96
2022-12-23T20:44:23.400Z,12.35
2022-12-23T20:46:37.689Z,12.60
2022-12-23T20:49:04.425Z,11.99
2022-12-23T20:51:31.278Z,12.89
2022-12-23T20:54:01.450Z,12.27
2022-12-23T20:56:30.797Z,13.94
2022-12-23T20:58:59.278Z,14.08
2022-12-23T21:01:32.104Z,13.61
2022-12-23T21:04:02.477Z,13.98
2022-12-23T21:06:31.022Z,14.83
2022-12-23T21:08:59.968Z,15.40
2022-12-23T21:11:32.389Z,14.59
2022-12-23T21:14:06.285Z,14.07
2022-12-23T21:16:35.986Z,12.97
2022-12-23T21:19:04.242Z,10.73
2022-12-23T21:21:31.960Z,12.24
2022-12-23T21:24:01.442Z,14.00
2022-12-23T21:26:30.085Z,11.21
2022-12-23T21:28:59.664Z,12.67
2022-12-23T21:31:28.154Z,11.61
2022-12-23T21:33:55.896Z,13.50
2022-12-23T21:36:26.464Z,11.74
2022-12-23T21:38:54.117Z,12.63
2022-12-23T21:41:25.014Z,10.89
2022-12-23T21:43:52.971Z,12.55
2022-12-23T21:46:22.962Z,13.39
2022-12-23T21:48:50.335Z,13.03
2022-12-23T21:51:36.670Z,14.02
2022-12-23T21:54:06.306Z,10.99
2022-12-23T21:56:33.662Z,12.58
2022-12-23T21:59:10.864Z,12.46
2022-12-23T22:01:38.588Z,12.00
2022-12-23T22:04:05.465Z,12.79
2022-12-23T22:06:37.981Z,14.03
2022-12-23T22:09:07.599Z,13.94
2022-12-23T22:11:37.293Z,13.13
2022-12-23T22:14:07.468Z,12.68
2022-12-23T22:16:36.080Z,14.33
2022-12-23T22:19:04.564Z,13.50
2022-12-23T22:21:32.982Z,11.58
2022-12-23T22:24:00.047Z,12.98
2022-12-23T22:26:30.840Z,12.97
2022-12-23T22:29:00.766Z,13.39
2022-12-23T22:31:30.865Z,12.92
2022-12-23T22:33:57.916Z,12.69
2022-12-23T22:36:24.986Z,13.30
2022-12-23T22:38:53.826Z,12.31
2022-12-23T22:41:21.156Z,13.20
2022-12-23T22:43:48.161Z,11.74
2022-12-23T22:46:15.571Z,12.15
2022-12-23T22:48:42.719Z,12.55
2022-12-23T22:51:21.708Z,12.85
2022-12-23T22:53:49.114Z,14.07
2022-12-23T22:56:17.494Z,13.60
2022-12-23T22:58:44.351Z,11.05
2022-12-23T23:01:27.552Z,12.89
2022-12-23T23:03:59.520Z,11.33
2022-12-23T23:06:29.218Z,11.20
2022-12-23T23:08:57.094Z,13.33
2022-12-23T23:11:25.589Z,13.11
2022-12-23T23:13:53.021Z,10.62
2022-12-23T23:16:20.740Z,12.62
2022-12-23T23:18:48.145Z,12.52
2022-12-23T23:21:15.302Z,11.51
2022-12-23T23:23:42.101Z,12.65
2022-12-23T23:26:10.335Z,12.00
2022-12-23T23:28:39.738Z,13.39
2022-12-23T23:33:55.478Z,13.24
2022-12-23T23:36:22.192Z,11.64
2022-12-23T23:38:49.130Z,12.21
2022-12-23T23:41:20.712Z,11.87
2022-12-23T23:43:50.056Z,11.89
2022-12-23T23:46:16.909Z,13.77
2022-12-23T23:48:43.716Z,12.87
2022-12-23T23:51:10.671Z,12.97
2022-12-23T23:53:37.393Z,13.33
2022-12-23T23:56:07.061Z,11.79
2022-12-23T23:58:34.878Z,11.59
